CheckWX is a tool to help pilots better visualize weather data.  It is not intended as a substitute for an official pre-flight weather briefing.

02:22:54 UTC

KCLE TAF
Cleveland Hopkins International Airport Airport
Cleveland, Ohio, USA
KCLE 092346Z 1000/1106 36007KT P6SM SCT050 FM101500 19004KT P6SM VCSH SCT050 FM101800 22006KT P6SM VCTS BKN050CB PROB30 1020/1024 5SM -TSRA BKN025CB FM110000 27008KT P6SM VCSH BKN035

Jul-10@
00:00 UTC

Jul-10 @ 00:00 UTC

Jul-10@
15:00 UTC

Jul-10 @ 15:00 UTC

TAF KCLE 092346Z 1000/1106 36007KT P6SM SCT050

Expired

Wind
  • 360° at 7 KTS
Cloud Levels
  • Scattered at 5,000' AGL

Jul-10@
15:00 UTC

Jul-10 @ 15:00 UTC

Jul-10@
18:00 UTC

Jul-10 @ 18:00 UTC

FM101500 19004KT P6SM VCSH SCT050

Expired

Wind
  • 190° at 4 KTS
Conditions
Area Showers
Cloud Levels
  • Scattered at 5,000' AGL

Jul-10@
18:00 UTC

Jul-10 @ 18:00 UTC

Jul-11@
00:00 UTC

Jul-11 @ 00:00 UTC

FM101800 22006KT P6SM VCTS BKN050CB

Expired

Wind
  • 220° at 6 KTS
Conditions
Area Thunderstorm
Cloud Levels
  • Broken at 5,000' AGL

Jul-10@
20:00 UTC

Jul-10 @ 20:00 UTC

Jul-11@
00:00 UTC

Jul-11 @ 00:00 UTC

PROB30 1020/1024 5SM -TSRA BKN025CB

Expired

Conditions
Light Thunderstorm, Rain
Cloud Levels
  • Broken at 2,500' AGL

Jul-11@
00:00 UTC

Jul-11 @ 00:00 UTC

Jul-11@
06:00 UTC

Jul-11 @ 06:00 UTC

FM110000 27008KT P6SM VCSH BKN035

From

From Standard forecast or significant change

Wind
  • 270° at 8 KTS
Conditions
Area Showers
Cloud Levels
  • Broken at 3,500' AGL